sensor_id;sensor_type;location;lat;lon;timestamp;P1;durP1;ratioP1;P2;durP2;ratioP2
2674;SDS011;1347;42.122;24.746;2023-01-25T00:01:55;10.10;;;6.60;;
2674;SDS011;1347;42.122;24.746;2023-01-25T00:04:22;11.67;;;7.00;;
2674;SDS011;1347;42.122;24.746;2023-01-25T00:06:49;12.30;;;7.40;;
2674;SDS011;1347;42.122;24.746;2023-01-25T00:09:17;9.43;;;6.43;;
2674;SDS011;1347;42.122;24.746;2023-01-25T00:11:45;10.87;;;6.60;;
2674;SDS011;1347;42.122;24.746;2023-01-25T00:14:12;9.67;;;7.00;;
2674;SDS011;1347;42.122;24.746;2023-01-25T00:16:40;11.60;;;7.30;;
2674;SDS011;1347;42.122;24.746;2023-01-25T00:19:08;9.03;;;7.23;;
2674;SDS011;1347;42.122;24.746;2023-01-25T00:21:36;10.47;;;7.33;;
2674;SDS011;1347;42.122;24.746;2023-01-25T00:24:03;10.87;;;7.47;;
2674;SDS011;1347;42.122;24.746;2023-01-25T00:26:32;14.90;;;7.80;;
2674;SDS011;1347;42.122;24.746;2023-01-25T00:29:01;10.50;;;6.57;;
2674;SDS011;1347;42.122;24.746;2023-01-25T00:31:31;8.87;;;6.47;;
2674;SDS011;1347;42.122;24.746;2023-01-25T00:34:06;10.47;;;6.87;;
2674;SDS011;1347;42.122;24.746;2023-01-25T00:37:09;8.77;;;5.83;;
2674;SDS011;1347;42.122;24.746;2023-01-25T00:39:39;10.07;;;7.23;;
2674;SDS011;1347;42.122;24.746;2023-01-25T00:42:07;9.67;;;7.57;;
2674;SDS011;1347;42.122;24.746;2023-01-25T00:44:37;9.93;;;6.50;;
2674;SDS011;1347;42.122;24.746;2023-01-25T00:47:04;10.40;;;6.00;;
2674;SDS011;1347;42.122;24.746;2023-01-25T00:49:31;10.10;;;6.40;;
2674;SDS011;1347;42.122;24.746;2023-01-25T00:51:59;10.93;;;7.13;;
2674;SDS011;1347;42.122;24.746;2023-01-25T00:54:26;9.53;;;5.60;;
2674;SDS011;1347;42.122;24.746;2023-01-25T00:56:53;11.40;;;7.03;;
2674;SDS011;1347;42.122;24.746;2023-01-25T00:59:20;7.57;;;5.73;;
2674;SDS011;1347;42.122;24.746;2023-01-25T01:01:50;10.70;;;6.50;;
2674;SDS011;1347;42.122;24.746;2023-01-25T01:04:17;9.10;;;6.60;;
2674;SDS011;1347;42.122;24.746;2023-01-25T01:06:45;11.00;;;6.67;;
2674;SDS011;1347;42.122;24.746;2023-01-25T01:09:12;7.97;;;5.53;;
2674;SDS011;1347;42.122;24.746;2023-01-25T01:11:41;8.27;;;5.50;;
2674;SDS011;1347;42.122;24.746;2023-01-25T01:14:08;8.00;;;5.27;;
2674;SDS011;1347;42.122;24.746;2023-01-25T01:16:35;8.60;;;6.60;;
2674;SDS011;1347;42.122;24.746;2023-01-25T01:19:04;7.17;;;5.57;;
2674;SDS011;1347;42.122;24.746;2023-01-25T01:21:31;9.47;;;5.90;;
2674;SDS011;1347;42.122;24.746;2023-01-25T01:23:58;8.30;;;6.10;;
2674;SDS011;1347;42.122;24.746;2023-01-25T01:26:25;6.40;;;5.17;;
2674;SDS011;1347;42.122;24.746;2023-01-25T01:28:52;8.30;;;5.53;;
2674;SDS011;1347;42.122;24.746;2023-01-25T01:31:19;9.47;;;4.67;;
2674;SDS011;1347;42.122;24.746;2023-01-25T01:33:48;7.27;;;4.13;;
2674;SDS011;1347;42.122;24.746;2023-01-25T01:36:17;9.10;;;5.70;;
2674;SDS011;1347;42.122;24.746;2023-01-25T01:38:45;8.30;;;5.13;;
2674;SDS011;1347;42.122;24.746;2023-01-25T01:41:13;6.70;;;4.50;;
2674;SDS011;1347;42.122;24.746;2023-01-25T01:43:41;10.70;;;5.40;;
2674;SDS011;1347;42.122;24.746;2023-01-25T01:46:09;10.10;;;5.47;;
2674;SDS011;1347;42.122;24.746;2023-01-25T01:48:39;9.80;;;5.87;;
2674;SDS011;1347;42.122;24.746;2023-01-25T01:51:11;10.23;;;5.90;;
2674;SDS011;1347;42.122;24.746;2023-01-25T01:53:44;7.57;;;5.20;;
2674;SDS011;1347;42.122;24.746;2023-01-25T01:56:15;9.27;;;5.40;;
2674;SDS011;1347;42.122;24.746;2023-01-25T01:58:47;10.33;;;6.07;;
2674;SDS011;1347;42.122;24.746;2023-01-25T02:01:17;7.17;;;5.33;;
2674;SDS011;1347;42.122;24.746;2023-01-25T02:03:45;10.03;;;6.30;;
2674;SDS011;1347;42.122;24.746;2023-01-25T02:06:14;7.43;;;4.53;;
2674;SDS011;1347;42.122;24.746;2023-01-25T02:08:47;7.50;;;5.23;;
2674;SDS011;1347;42.122;24.746;2023-01-25T02:11:15;7.90;;;4.90;;
2674;SDS011;1347;42.122;24.746;2023-01-25T02:13:42;7.20;;;4.80;;
2674;SDS011;1347;42.122;24.746;2023-01-25T02:16:11;7.33;;;5.80;;
2674;SDS011;1347;42.122;24.746;2023-01-25T02:18:41;8.40;;;5.27;;
2674;SDS011;1347;42.122;24.746;2023-01-25T02:21:08;6.60;;;5.07;;
2674;SDS011;1347;42.122;24.746;2023-01-25T02:23:38;8.93;;;5.23;;
2674;SDS011;1347;42.122;24.746;2023-01-25T02:26:14;8.30;;;6.20;;
2674;SDS011;1347;42.122;24.746;2023-01-25T02:28:43;7.03;;;5.87;;
2674;SDS011;1347;42.122;24.746;2023-01-25T02:31:13;7.00;;;5.20;;
2674;SDS011;1347;42.122;24.746;2023-01-25T02:33:41;8.90;;;6.13;;
2674;SDS011;1347;42.122;24.746;2023-01-25T02:36:14;7.87;;;6.10;;
2674;SDS011;1347;42.122;24.746;2023-01-25T02:38:46;8.33;;;5.23;;
2674;SDS011;1347;42.122;24.746;2023-01-25T02:41:29;8.57;;;5.73;;
2674;SDS011;1347;42.122;24.746;2023-01-25T02:43:58;9.50;;;6.03;;
2674;SDS011;1347;42.122;24.746;2023-01-25T02:46:26;5.33;;;4.83;;
2674;SDS011;1347;42.122;24.746;2023-01-25T02:48:56;7.30;;;5.50;;
2674;SDS011;1347;42.122;24.746;2023-01-25T02:51:24;6.60;;;5.13;;
2674;SDS011;1347;42.122;24.746;2023-01-25T02:53:52;7.10;;;4.83;;
2674;SDS011;1347;42.122;24.746;2023-01-25T02:56:20;6.20;;;5.20;;
2674;SDS011;1347;42.122;24.746;2023-01-25T02:58:48;8.50;;;4.60;;
2674;SDS011;1347;42.122;24.746;2023-01-25T03:01:15;8.27;;;5.30;;
2674;SDS011;1347;42.122;24.746;2023-01-25T03:03:42;9.10;;;5.40;;
2674;SDS011;1347;42.122;24.746;2023-01-25T03:06:09;8.83;;;5.23;;
2674;SDS011;1347;42.122;24.746;2023-01-25T03:08:36;6.73;;;5.17;;
2674;SDS011;1347;42.122;24.746;2023-01-25T03:11:04;6.50;;;5.03;;
2674;SDS011;1347;42.122;24.746;2023-01-25T03:13:32;6.13;;;4.93;;
2674;SDS011;1347;42.122;24.746;2023-01-25T03:16:02;7.47;;;3.90;;
2674;SDS011;1347;42.122;24.746;2023-01-25T03:18:30;5.87;;;4.40;;
2674;SDS011;1347;42.122;24.746;2023-01-25T03:21:02;7.43;;;4.60;;
2674;SDS011;1347;42.122;24.746;2023-01-25T03:23:30;7.20;;;4.67;;
2674;SDS011;1347;42.122;24.746;2023-01-25T03:26:03;6.73;;;4.60;;
2674;SDS011;1347;42.122;24.746;2023-01-25T03:28:31;6.40;;;5.70;;
2674;SDS011;1347;42.122;24.746;2023-01-25T03:30:58;11.57;;;7.60;;
2674;SDS011;1347;42.122;24.746;2023-01-25T03:33:26;11.30;;;7.47;;
2674;SDS011;1347;42.122;24.746;2023-01-25T03:35:53;12.60;;;6.77;;
2674;SDS011;1347;42.122;24.746;2023-01-25T03:38:20;12.20;;;6.57;;
2674;SDS011;1347;42.122;24.746;2023-01-25T03:40:47;8.40;;;5.30;;
2674;SDS011;1347;42.122;24.746;2023-01-25T03:43:14;11.20;;;4.27;;
2674;SDS011;1347;42.122;24.746;2023-01-25T03:45:41;4.60;;;3.60;;
2674;SDS011;1347;42.122;24.746;2023-01-25T03:48:08;5.83;;;3.97;;
2674;SDS011;1347;42.122;24.746;2023-01-25T03:50:37;7.03;;;4.57;;
2674;SDS011;1347;42.122;24.746;2023-01-25T03:53:06;6.27;;;4.40;;
2674;SDS011;1347;42.122;24.746;2023-01-25T03:55:51;6.67;;;4.57;;
2674;SDS011;1347;42.122;24.746;2023-01-25T03:58:19;6.30;;;4.43;;
2674;SDS011;1347;42.122;24.746;2023-01-25T04:00:46;5.30;;;3.70;;
2674;SDS011;1347;42.122;24.746;2023-01-25T04:03:13;7.73;;;4.73;;
2674;SDS011;1347;42.122;24.746;2023-01-25T04:05:41;7.10;;;4.77;;
2674;SDS011;1347;42.122;24.746;2023-01-25T04:08:08;7.43;;;5.23;;
2674;SDS011;1347;42.122;24.746;2023-01-25T04:10:35;7.73;;;4.87;;
2674;SDS011;1347;42.122;24.746;2023-01-25T04:13:02;7.47;;;4.20;;
2674;SDS011;1347;42.122;24.746;2023-01-25T04:15:29;8.27;;;5.33;;
2674;SDS011;1347;42.122;24.746;2023-01-25T04:17:56;6.93;;;4.20;;
2674;SDS011;1347;42.122;24.746;2023-01-25T04:20:23;7.00;;;4.20;;
2674;SDS011;1347;42.122;24.746;2023-01-25T04:22:51;4.70;;;3.33;;
2674;SDS011;1347;42.122;24.746;2023-01-25T04:25:18;5.50;;;3.60;;
2674;SDS011;1347;42.122;24.746;2023-01-25T04:27:45;7.93;;;4.80;;
2674;SDS011;1347;42.122;24.746;2023-01-25T04:30:12;5.30;;;3.97;;
2674;SDS011;1347;42.122;24.746;2023-01-25T04:32:39;6.40;;;4.50;;
2674;SDS011;1347;42.122;24.746;2023-01-25T04:35:06;8.20;;;3.70;;
2674;SDS011;1347;42.122;24.746;2023-01-25T04:37:34;5.83;;;4.07;;
2674;SDS011;1347;42.122;24.746;2023-01-25T04:40:02;10.40;;;5.90;;
2674;SDS011;1347;42.122;24.746;2023-01-25T04:42:31;7.73;;;4.60;;
2674;SDS011;1347;42.122;24.746;2023-01-25T04:44:57;9.03;;;5.27;;
2674;SDS011;1347;42.122;24.746;2023-01-25T04:47:24;9.60;;;5.47;;
2674;SDS011;1347;42.122;24.746;2023-01-25T04:49:51;6.70;;;4.47;;
2674;SDS011;1347;42.122;24.746;2023-01-25T04:52:18;7.00;;;5.40;;
2674;SDS011;1347;42.122;24.746;2023-01-25T04:54:45;9.67;;;5.23;;
2674;SDS011;1347;42.122;24.746;2023-01-25T04:57:13;7.93;;;4.67;;
2674;SDS011;1347;42.122;24.746;2023-01-25T04:59:40;8.70;;;4.63;;
2674;SDS011;1347;42.122;24.746;2023-01-25T05:02:07;6.90;;;4.60;;
2674;SDS011;1347;42.122;24.746;2023-01-25T05:04:34;10.40;;;4.90;;
2674;SDS011;1347;42.122;24.746;2023-01-25T05:07:01;5.80;;;4.30;;
2674;SDS011;1347;42.122;24.746;2023-01-25T05:09:28;10.23;;;5.00;;
2674;SDS011;1347;42.122;24.746;2023-01-25T05:11:54;5.73;;;4.30;;
2674;SDS011;1347;42.122;24.746;2023-01-25T05:14:23;8.47;;;5.10;;
2674;SDS011;1347;42.122;24.746;2023-01-25T05:16:50;5.27;;;3.73;;
2674;SDS011;1347;42.122;24.746;2023-01-25T05:19:17;10.70;;;4.57;;
2674;SDS011;1347;42.122;24.746;2023-01-25T05:21:44;7.57;;;4.80;;
2674;SDS011;1347;42.122;24.746;2023-01-25T05:24:26;8.10;;;5.03;;
2674;SDS011;1347;42.122;24.746;2023-01-25T05:26:54;8.10;;;5.60;;
2674;SDS011;1347;42.122;24.746;2023-01-25T05:29:40;9.03;;;4.47;;
2674;SDS011;1347;42.122;24.746;2023-01-25T05:32:09;6.80;;;4.43;;
2674;SDS011;1347;42.122;24.746;2023-01-25T05:34:37;8.70;;;5.30;;
2674;SDS011;1347;42.122;24.746;2023-01-25T05:37:05;14.63;;;6.50;;
2674;SDS011;1347;42.122;24.746;2023-01-25T05:39:34;7.80;;;5.60;;
2674;SDS011;1347;42.122;24.746;2023-01-25T05:42:01;10.40;;;4.77;;
2674;SDS011;1347;42.122;24.746;2023-01-25T05:44:28;5.87;;;4.27;;
2674;SDS011;1347;42.122;24.746;2023-01-25T05:46:56;6.40;;;4.07;;
2674;SDS011;1347;42.122;24.746;2023-01-25T05:49:23;11.33;;;5.93;;
2674;SDS011;1347;42.122;24.746;2023-01-25T05:51:50;7.87;;;4.70;;
2674;SDS011;1347;42.122;24.746;2023-01-25T05:54:17;6.90;;;4.40;;
2674;SDS011;1347;42.122;24.746;2023-01-25T05:56:44;7.17;;;4.20;;
2674;SDS011;1347;42.122;24.746;2023-01-25T05:59:14;13.17;;;5.63;;
2674;SDS011;1347;42.122;24.746;2023-01-25T06:01:41;6.50;;;4.53;;
2674;SDS011;1347;42.122;24.746;2023-01-25T06:04:09;8.57;;;5.70;;
2674;SDS011;1347;42.122;24.746;2023-01-25T06:06:39;8.67;;;4.60;;
2674;SDS011;1347;42.122;24.746;2023-01-25T06:09:06;10.60;;;5.60;;
2674;SDS011;1347;42.122;24.746;2023-01-25T06:11:33;8.37;;;5.30;;
2674;SDS011;1347;42.122;24.746;2023-01-25T06:14:00;12.43;;;7.30;;
2674;SDS011;1347;42.122;24.746;2023-01-25T06:16:27;9.83;;;6.13;;
2674;SDS011;1347;42.122;24.746;2023-01-25T06:18:54;11.10;;;6.50;;
2674;SDS011;1347;42.122;24.746;2023-01-25T06:21:22;9.67;;;6.30;;
2674;SDS011;1347;42.122;24.746;2023-01-25T06:23:49;18.93;;;6.83;;
2674;SDS011;1347;42.122;24.746;2023-01-25T06:26:16;10.47;;;6.70;;
2674;SDS011;1347;42.122;24.746;2023-01-25T06:28:43;12.70;;;6.70;;
2674;SDS011;1347;42.122;24.746;2023-01-25T06:31:10;11.77;;;6.90;;
2674;SDS011;1347;42.122;24.746;2023-01-25T06:33:38;10.27;;;7.27;;
2674;SDS011;1347;42.122;24.746;2023-01-25T06:36:06;9.70;;;6.60;;
2674;SDS011;1347;42.122;24.746;2023-01-25T06:38:38;9.43;;;6.10;;
2674;SDS011;1347;42.122;24.746;2023-01-25T06:41:06;11.33;;;7.30;;
2674;SDS011;1347;42.122;24.746;2023-01-25T06:43:36;13.87;;;7.30;;
2674;SDS011;1347;42.122;24.746;2023-01-25T06:46:03;10.07;;;7.00;;
2674;SDS011;1347;42.122;24.746;2023-01-25T06:48:32;7.53;;;5.60;;
2674;SDS011;1347;42.122;24.746;2023-01-25T06:51:00;11.50;;;6.50;;
2674;SDS011;1347;42.122;24.746;2023-01-25T06:53:30;8.23;;;5.97;;
2674;SDS011;1347;42.122;24.746;2023-01-25T06:56:00;7.70;;;5.83;;
2674;SDS011;1347;42.122;24.746;2023-01-25T06:58:29;10.67;;;7.50;;
2674;SDS011;1347;42.122;24.746;2023-01-25T07:00:58;12.47;;;8.47;;
2674;SDS011;1347;42.122;24.746;2023-01-25T07:03:27;11.63;;;6.57;;
2674;SDS011;1347;42.122;24.746;2023-01-25T07:05:57;10.90;;;6.93;;
2674;SDS011;1347;42.122;24.746;2023-01-25T07:08:25;10.80;;;6.63;;
2674;SDS011;1347;42.122;24.746;2023-01-25T07:10:52;11.20;;;6.40;;
2674;SDS011;1347;42.122;24.746;2023-01-25T07:13:22;12.73;;;6.33;;
2674;SDS011;1347;42.122;24.746;2023-01-25T07:15:53;14.23;;;6.67;;
2674;SDS011;1347;42.122;24.746;2023-01-25T07:18:20;10.00;;;6.40;;
2674;SDS011;1347;42.122;24.746;2023-01-25T07:20:47;11.60;;;5.77;;
2674;SDS011;1347;42.122;24.746;2023-01-25T07:23:14;8.17;;;5.40;;
2674;SDS011;1347;42.122;24.746;2023-01-25T07:25:44;8.23;;;5.00;;
2674;SDS011;1347;42.122;24.746;2023-01-25T07:28:12;10.50;;;5.90;;
2674;SDS011;1347;42.122;24.746;2023-01-25T07:30:41;9.63;;;5.77;;
2674;SDS011;1347;42.122;24.746;2023-01-25T07:33:09;10.63;;;6.43;;
2674;SDS011;1347;42.122;24.746;2023-01-25T07:35:36;11.00;;;7.43;;
2674;SDS011;1347;42.122;24.746;2023-01-25T07:38:03;12.53;;;8.07;;
2674;SDS011;1347;42.122;24.746;2023-01-25T07:40:30;13.93;;;8.23;;
2674;SDS011;1347;42.122;24.746;2023-01-25T07:42:57;14.13;;;8.00;;
2674;SDS011;1347;42.122;24.746;2023-01-25T07:45:25;12.80;;;7.40;;
2674;SDS011;1347;42.122;24.746;2023-01-25T07:47:56;12.67;;;7.40;;
2674;SDS011;1347;42.122;24.746;2023-01-25T07:50:24;9.60;;;4.90;;
2674;SDS011;1347;42.122;24.746;2023-01-25T07:52:51;9.57;;;5.97;;
2674;SDS011;1347;42.122;24.746;2023-01-25T07:55:18;9.40;;;6.43;;
2674;SDS011;1347;42.122;24.746;2023-01-25T07:57:46;10.10;;;6.13;;
2674;SDS011;1347;42.122;24.746;2023-01-25T08:00:13;9.50;;;6.47;;
2674;SDS011;1347;42.122;24.746;2023-01-25T08:02:40;11.70;;;5.80;;
2674;SDS011;1347;42.122;24.746;2023-01-25T08:05:09;12.43;;;5.73;;
2674;SDS011;1347;42.122;24.746;2023-01-25T08:07:36;6.57;;;4.60;;
2674;SDS011;1347;42.122;24.746;2023-01-25T08:10:03;10.03;;;5.80;;
2674;SDS011;1347;42.122;24.746;2023-01-25T08:12:31;8.60;;;6.17;;
2674;SDS011;1347;42.122;24.746;2023-01-25T08:14:58;8.80;;;4.73;;
2674;SDS011;1347;42.122;24.746;2023-01-25T08:17:25;19.93;;;6.33;;
2674;SDS011;1347;42.122;24.746;2023-01-25T08:19:56;11.17;;;6.00;;
2674;SDS011;1347;42.122;24.746;2023-01-25T08:22:25;9.60;;;6.43;;
2674;SDS011;1347;42.122;24.746;2023-01-25T08:24:52;9.27;;;6.07;;
2674;SDS011;1347;42.122;24.746;2023-01-25T08:27:19;8.87;;;5.90;;
2674;SDS011;1347;42.122;24.746;2023-01-25T08:29:46;7.93;;;5.40;;
2674;SDS011;1347;42.122;24.746;2023-01-25T08:32:14;7.00;;;5.50;;
2674;SDS011;1347;42.122;24.746;2023-01-25T08:34:41;6.20;;;5.10;;
2674;SDS011;1347;42.122;24.746;2023-01-25T08:37:08;12.07;;;6.03;;
2674;SDS011;1347;42.122;24.746;2023-01-25T08:39:36;9.87;;;6.73;;
2674;SDS011;1347;42.122;24.746;2023-01-25T08:42:03;12.43;;;6.70;;
2674;SDS011;1347;42.122;24.746;2023-01-25T08:44:31;13.80;;;7.73;;
2674;SDS011;1347;42.122;24.746;2023-01-25T08:46:58;9.43;;;6.60;;
2674;SDS011;1347;42.122;24.746;2023-01-25T08:49:25;10.33;;;5.93;;
2674;SDS011;1347;42.122;24.746;2023-01-25T08:51:51;8.27;;;5.60;;
2674;SDS011;1347;42.122;24.746;2023-01-25T08:54:18;8.83;;;5.90;;
2674;SDS011;1347;42.122;24.746;2023-01-25T08:56:47;7.50;;;4.97;;
2674;SDS011;1347;42.122;24.746;2023-01-25T08:59:14;9.57;;;6.47;;
2674;SDS011;1347;42.122;24.746;2023-01-25T09:01:40;10.20;;;6.47;;
2674;SDS011;1347;42.122;24.746;2023-01-25T09:04:07;11.23;;;5.93;;
2674;SDS011;1347;42.122;24.746;2023-01-25T09:06:34;15.13;;;6.27;;
2674;SDS011;1347;42.122;24.746;2023-01-25T09:09:01;10.60;;;6.33;;
2674;SDS011;1347;42.122;24.746;2023-01-25T09:11:29;10.73;;;6.00;;
2674;SDS011;1347;42.122;24.746;2023-01-25T09:14:00;7.20;;;5.13;;
2674;SDS011;1347;42.122;24.746;2023-01-25T09:16:27;13.13;;;6.70;;
2674;SDS011;1347;42.122;24.746;2023-01-25T09:18:54;10.80;;;7.47;;
2674;SDS011;1347;42.122;24.746;2023-01-25T09:21:22;12.00;;;8.10;;
2674;SDS011;1347;42.122;24.746;2023-01-25T09:23:50;10.93;;;5.93;;
2674;SDS011;1347;42.122;24.746;2023-01-25T09:26:19;11.40;;;5.60;;
2674;SDS011;1347;42.122;24.746;2023-01-25T09:28:46;11.03;;;5.90;;
2674;SDS011;1347;42.122;24.746;2023-01-25T09:31:16;9.07;;;6.30;;
2674;SDS011;1347;42.122;24.746;2023-01-25T09:33:43;9.10;;;6.80;;
2674;SDS011;1347;42.122;24.746;2023-01-25T09:36:11;8.23;;;5.90;;
2674;SDS011;1347;42.122;24.746;2023-01-25T09:38:39;17.30;;;6.30;;
2674;SDS011;1347;42.122;24.746;2023-01-25T09:41:11;8.67;;;5.57;;
2674;SDS011;1347;42.122;24.746;2023-01-25T09:43:57;8.23;;;5.47;;
2674;SDS011;1347;42.122;24.746;2023-01-25T09:46:38;11.10;;;6.40;;
2674;SDS011;1347;42.122;24.746;2023-01-25T09:49:12;9.50;;;6.13;;
2674;SDS011;1347;42.122;24.746;2023-01-25T09:51:56;12.47;;;7.70;;
2674;SDS011;1347;42.122;24.746;2023-01-25T09:54:35;9.53;;;7.03;;
2674;SDS011;1347;42.122;24.746;2023-01-25T09:57:06;11.47;;;6.40;;
2674;SDS011;1347;42.122;24.746;2023-01-25T09:59:39;10.93;;;6.53;;
2674;SDS011;1347;42.122;24.746;2023-01-25T10:02:12;11.23;;;5.73;;
2674;SDS011;1347;42.122;24.746;2023-01-25T10:04:53;9.40;;;6.10;;
2674;SDS011;1347;42.122;24.746;2023-01-25T10:07:24;10.20;;;6.40;;
2674;SDS011;1347;42.122;24.746;2023-01-25T10:09:56;8.30;;;6.33;;
2674;SDS011;1347;42.122;24.746;2023-01-25T10:12:31;11.73;;;7.40;;
2674;SDS011;1347;42.122;24.746;2023-01-25T10:15:01;8.80;;;6.07;;
2674;SDS011;1347;42.122;24.746;2023-01-25T10:17:44;9.90;;;6.67;;
2674;SDS011;1347;42.122;24.746;2023-01-25T10:20:17;11.43;;;6.50;;
2674;SDS011;1347;42.122;24.746;2023-01-25T10:22:53;13.87;;;7.20;;
2674;SDS011;1347;42.122;24.746;2023-01-25T10:25:33;10.53;;;6.97;;
2674;SDS011;1347;42.122;24.746;2023-01-25T10:28:12;10.00;;;6.13;;
2674;SDS011;1347;42.122;24.746;2023-01-25T10:30:47;11.03;;;6.10;;
2674;SDS011;1347;42.122;24.746;2023-01-25T10:33:23;15.90;;;7.40;;
2674;SDS011;1347;42.122;24.746;2023-01-25T10:35:53;9.87;;;6.30;;
2674;SDS011;1347;42.122;24.746;2023-01-25T10:38:23;9.63;;;7.00;;
2674;SDS011;1347;42.122;24.746;2023-01-25T10:40:54;11.60;;;6.07;;
2674;SDS011;1347;42.122;24.746;2023-01-25T10:43:26;7.87;;;5.60;;
2674;SDS011;1347;42.122;24.746;2023-01-25T10:45:53;16.37;;;7.63;;
2674;SDS011;1347;42.122;24.746;2023-01-25T10:48:20;12.23;;;7.60;;
2674;SDS011;1347;42.122;24.746;2023-01-25T10:50:51;9.03;;;6.23;;
2674;SDS011;1347;42.122;24.746;2023-01-25T10:53:23;9.33;;;5.30;;
2674;SDS011;1347;42.122;24.746;2023-01-25T10:55:59;9.50;;;6.53;;
2674;SDS011;1347;42.122;24.746;2023-01-25T10:58:31;11.53;;;6.70;;
2674;SDS011;1347;42.122;24.746;2023-01-25T11:01:00;11.13;;;6.73;;
2674;SDS011;1347;42.122;24.746;2023-01-25T11:03:36;7.73;;;5.23;;
2674;SDS011;1347;42.122;24.746;2023-01-25T11:06:05;11.90;;;5.83;;
2674;SDS011;1347;42.122;24.746;2023-01-25T11:08:35;13.27;;;7.47;;
2674;SDS011;1347;42.122;24.746;2023-01-25T11:13:55;9.73;;;6.20;;
2674;SDS011;1347;42.122;24.746;2023-01-25T11:16:26;10.37;;;7.07;;
2674;SDS011;1347;42.122;24.746;2023-01-25T11:18:58;11.17;;;6.40;;
2674;SDS011;1347;42.122;24.746;2023-01-25T11:21:27;10.50;;;6.97;;
2674;SDS011;1347;42.122;24.746;2023-01-25T11:23:59;10.73;;;8.00;;
2674;SDS011;1347;42.122;24.746;2023-01-25T11:26:28;13.97;;;8.23;;
2674;SDS011;1347;42.122;24.746;2023-01-25T11:29:07;14.60;;;8.57;;
2674;SDS011;1347;42.122;24.746;2023-01-25T11:31:38;13.70;;;7.73;;
2674;SDS011;1347;42.122;24.746;2023-01-25T11:34:09;15.33;;;8.80;;
2674;SDS011;1347;42.122;24.746;2023-01-25T11:36:39;12.43;;;8.17;;
2674;SDS011;1347;42.122;24.746;2023-01-25T11:42:14;11.23;;;6.97;;
2674;SDS011;1347;42.122;24.746;2023-01-25T11:47:51;7.50;;;5.83;;
2674;SDS011;1347;42.122;24.746;2023-01-25T11:50:32;9.57;;;6.17;;
2674;SDS011;1347;42.122;24.746;2023-01-25T11:53:12;9.03;;;6.77;;
2674;SDS011;1347;42.122;24.746;2023-01-25T11:55:53;9.67;;;6.20;;
2674;SDS011;1347;42.122;24.746;2023-01-25T11:58:36;8.33;;;5.23;;
2674;SDS011;1347;42.122;24.746;2023-01-25T12:01:20;7.83;;;6.30;;
2674;SDS011;1347;42.122;24.746;2023-01-25T12:04:04;10.03;;;6.47;;
2674;SDS011;1347;42.122;24.746;2023-01-25T12:07:00;22.53;;;14.10;;
2674;SDS011;1347;42.122;24.746;2023-01-25T12:09:36;21.40;;;14.10;;
2674;SDS011;1347;42.122;24.746;2023-01-25T12:12:20;13.83;;;9.93;;
2674;SDS011;1347;42.122;24.746;2023-01-25T12:15:04;12.70;;;8.73;;
2674;SDS011;1347;42.122;24.746;2023-01-25T12:17:47;13.40;;;6.30;;
2674;SDS011;1347;42.122;24.746;2023-01-25T12:20:30;8.57;;;6.37;;
2674;SDS011;1347;42.122;24.746;2023-01-25T12:23:16;8.97;;;5.87;;
2674;SDS011;1347;42.122;24.746;2023-01-25T12:25:58;8.93;;;6.67;;
2674;SDS011;1347;42.122;24.746;2023-01-25T12:28:35;11.47;;;7.10;;
2674;SDS011;1347;42.122;24.746;2023-01-25T12:31:08;10.33;;;6.50;;
2674;SDS011;1347;42.122;24.746;2023-01-25T12:33:44;8.67;;;4.93;;
2674;SDS011;1347;42.122;24.746;2023-01-25T12:36:13;5.37;;;4.10;;
2674;SDS011;1347;42.122;24.746;2023-01-25T12:38:49;7.13;;;5.60;;
2674;SDS011;1347;42.122;24.746;2023-01-25T12:41:24;9.53;;;5.00;;
2674;SDS011;1347;42.122;24.746;2023-01-25T12:44:03;8.53;;;5.33;;
2674;SDS011;1347;42.122;24.746;2023-01-25T12:46:39;10.33;;;5.53;;
2674;SDS011;1347;42.122;24.746;2023-01-25T12:49:13;9.43;;;6.97;;
2674;SDS011;1347;42.122;24.746;2023-01-25T12:51:46;12.33;;;8.10;;
2674;SDS011;1347;42.122;24.746;2023-01-25T12:54:18;8.30;;;6.20;;
2674;SDS011;1347;42.122;24.746;2023-01-25T12:56:55;7.60;;;5.80;;
2674;SDS011;1347;42.122;24.746;2023-01-25T12:59:33;8.43;;;6.20;;
2674;SDS011;1347;42.122;24.746;2023-01-25T13:02:10;11.00;;;5.53;;
2674;SDS011;1347;42.122;24.746;2023-01-25T13:04:52;10.20;;;5.87;;
2674;SDS011;1347;42.122;24.746;2023-01-25T13:07:26;14.03;;;9.30;;
2674;SDS011;1347;42.122;24.746;2023-01-25T13:10:03;10.00;;;6.60;;
2674;SDS011;1347;42.122;24.746;2023-01-25T13:12:50;10.10;;;5.70;;
2674;SDS011;1347;42.122;24.746;2023-01-25T13:15:33;16.20;;;8.53;;
2674;SDS011;1347;42.122;24.746;2023-01-25T13:21:04;11.87;;;6.17;;
2674;SDS011;1347;42.122;24.746;2023-01-25T13:23:37;7.33;;;5.30;;
2674;SDS011;1347;42.122;24.746;2023-01-25T13:35:26;10.80;;;7.00;;
2674;SDS011;1347;42.122;24.746;2023-01-25T13:37:56;13.57;;;7.43;;
2674;SDS011;1347;42.122;24.746;2023-01-25T13:40:28;12.93;;;7.77;;
2674;SDS011;1347;42.122;24.746;2023-01-25T13:42:59;14.93;;;7.60;;
2674;SDS011;1347;42.122;24.746;2023-01-25T13:45:28;9.67;;;7.30;;
2674;SDS011;1347;42.122;24.746;2023-01-25T13:48:00;11.47;;;7.73;;
2674;SDS011;1347;42.122;24.746;2023-01-25T13:50:31;14.13;;;6.67;;
2674;SDS011;1347;42.122;24.746;2023-01-25T13:53:03;9.40;;;6.10;;
2674;SDS011;1347;42.122;24.746;2023-01-25T13:55:37;7.17;;;5.70;;
2674;SDS011;1347;42.122;24.746;2023-01-25T13:58:09;9.30;;;6.87;;
2674;SDS011;1347;42.122;24.746;2023-01-25T14:00:46;10.93;;;5.97;;
2674;SDS011;1347;42.122;24.746;2023-01-25T14:03:15;7.87;;;5.33;;
2674;SDS011;1347;42.122;24.746;2023-01-25T14:05:47;9.60;;;5.80;;
2674;SDS011;1347;42.122;24.746;2023-01-25T14:08:16;9.10;;;5.70;;
2674;SDS011;1347;42.122;24.746;2023-01-25T14:10:45;8.70;;;5.23;;
2674;SDS011;1347;42.122;24.746;2023-01-25T14:13:15;8.13;;;6.33;;
2674;SDS011;1347;42.122;24.746;2023-01-25T14:15:50;9.63;;;4.33;;
2674;SDS011;1347;42.122;24.746;2023-01-25T14:18:20;8.90;;;4.97;;
2674;SDS011;1347;42.122;24.746;2023-01-25T14:21:07;13.40;;;6.50;;
2674;SDS011;1347;42.122;24.746;2023-01-25T14:23:35;8.03;;;6.10;;
2674;SDS011;1347;42.122;24.746;2023-01-25T14:26:03;7.40;;;5.23;;
2674;SDS011;1347;42.122;24.746;2023-01-25T14:28:43;10.47;;;6.67;;
2674;SDS011;1347;42.122;24.746;2023-01-25T14:31:15;10.10;;;6.13;;
2674;SDS011;1347;42.122;24.746;2023-01-25T14:33:46;13.07;;;6.90;;
2674;SDS011;1347;42.122;24.746;2023-01-25T14:36:19;11.90;;;6.80;;
2674;SDS011;1347;42.122;24.746;2023-01-25T14:38:47;10.33;;;6.60;;
2674;SDS011;1347;42.122;24.746;2023-01-25T14:41:15;12.30;;;5.77;;
2674;SDS011;1347;42.122;24.746;2023-01-25T14:43:46;8.80;;;5.50;;
2674;SDS011;1347;42.122;24.746;2023-01-25T14:46:18;8.97;;;6.90;;
2674;SDS011;1347;42.122;24.746;2023-01-25T14:48:46;10.23;;;7.07;;
2674;SDS011;1347;42.122;24.746;2023-01-25T14:51:14;13.13;;;6.63;;
2674;SDS011;1347;42.122;24.746;2023-01-25T14:53:48;10.67;;;6.80;;
2674;SDS011;1347;42.122;24.746;2023-01-25T14:56:31;17.03;;;6.10;;
2674;SDS011;1347;42.122;24.746;2023-01-25T14:59:04;6.83;;;5.50;;
2674;SDS011;1347;42.122;24.746;2023-01-25T15:01:35;17.23;;;7.70;;
2674;SDS011;1347;42.122;24.746;2023-01-25T15:04:03;10.13;;;5.87;;
2674;SDS011;1347;42.122;24.746;2023-01-25T15:06:43;9.50;;;7.07;;
2674;SDS011;1347;42.122;24.746;2023-01-25T15:12:00;11.33;;;6.13;;
2674;SDS011;1347;42.122;24.746;2023-01-25T15:14:29;9.40;;;6.40;;
2674;SDS011;1347;42.122;24.746;2023-01-25T15:16:56;15.30;;;8.07;;
2674;SDS011;1347;42.122;24.746;2023-01-25T15:19:25;15.20;;;7.10;;
2674;SDS011;1347;42.122;24.746;2023-01-25T15:21:53;13.53;;;6.83;;
2674;SDS011;1347;42.122;24.746;2023-01-25T15:24:21;15.63;;;7.10;;
2674;SDS011;1347;42.122;24.746;2023-01-25T15:26:50;17.83;;;8.97;;
2674;SDS011;1347;42.122;24.746;2023-01-25T15:29:18;10.63;;;6.70;;
2674;SDS011;1347;42.122;24.746;2023-01-25T15:31:48;9.87;;;6.20;;
2674;SDS011;1347;42.122;24.746;2023-01-25T15:34:17;10.57;;;6.30;;
2674;SDS011;1347;42.122;24.746;2023-01-25T15:36:46;13.27;;;6.53;;
2674;SDS011;1347;42.122;24.746;2023-01-25T15:39:14;8.13;;;5.60;;